createdAt,value
2023-03-23T15:59:10.828Z,15.61
2023-03-23T16:01:40.070Z,15.66
2023-03-23T16:04:10.846Z,15.51
2023-03-23T16:06:38.254Z,15.58
2023-03-23T16:09:07.012Z,15.48
2023-03-23T16:11:34.423Z,15.58
2023-03-23T16:14:01.760Z,15.56
2023-03-23T16:16:32.538Z,15.52
2023-03-23T16:18:59.078Z,15.36
2023-03-23T16:21:26.107Z,15.40
2023-03-23T16:23:52.722Z,15.28
2023-03-23T16:26:19.295Z,15.34
2023-03-23T16:28:46.108Z,15.33
2023-03-23T16:31:12.677Z,15.27
2023-03-23T16:33:39.375Z,15.21
2023-03-23T16:36:06.288Z,15.23
2023-03-23T16:38:32.802Z,15.21
2023-03-23T16:41:16.201Z,15.25
2023-03-23T16:43:42.725Z,15.27
2023-03-23T16:46:12.341Z,15.13
2023-03-23T16:48:38.924Z,15.14
2023-03-23T16:51:05.567Z,15.15
2023-03-23T16:53:32.611Z,14.99
2023-03-23T16:55:59.123Z,15.16
2023-03-23T16:58:25.902Z,15.14
2023-03-23T17:00:53.489Z,15.13
2023-03-23T17:03:21.562Z,15.08
2023-03-23T17:05:50.340Z,15.02
2023-03-23T17:08:18.000Z,15.03
2023-03-23T17:10:45.702Z,14.89
2023-03-23T17:13:12.636Z,14.88
2023-03-23T17:15:43.644Z,14.83
2023-03-23T17:18:11.748Z,14.75
2023-03-23T17:20:38.586Z,14.85
2023-03-23T17:23:05.893Z,14.83
2023-03-23T17:25:32.476Z,14.70
2023-03-23T17:28:05.106Z,14.64
2023-03-23T17:30:33.011Z,14.63
2023-03-23T17:32:59.600Z,14.60
2023-03-23T17:35:26.244Z,14.50
2023-03-23T17:37:52.706Z,14.40
2023-03-23T17:40:19.234Z,14.35
2023-03-23T17:42:45.724Z,14.31
2023-03-23T17:45:12.518Z,14.26
2023-03-23T17:47:39.210Z,14.23
2023-03-23T17:50:11.238Z,14.15
2023-03-23T17:52:39.255Z,14.08
2023-03-23T17:55:06.287Z,14.11
2023-03-23T17:57:32.879Z,14.16
2023-03-23T17:59:59.354Z,14.06
2023-03-23T18:02:26.062Z,14.07
2023-03-23T18:04:52.683Z,14.05
2023-03-23T18:07:23.424Z,14.00
2023-03-23T18:09:50.806Z,13.95
2023-03-23T18:12:18.230Z,14.03
2023-03-23T18:14:44.805Z,13.90
2023-03-23T18:17:11.303Z,13.85
2023-03-23T18:19:38.004Z,13.77
2023-03-23T18:22:04.509Z,13.77
2023-03-23T18:24:31.050Z,13.80
2023-03-23T18:26:57.592Z,13.85
2023-03-23T18:29:24.091Z,13.72
2023-03-23T18:31:50.650Z,13.74
2023-03-23T18:34:17.327Z,13.69
2023-03-23T18:36:43.829Z,13.70
2023-03-23T18:39:12.027Z,13.72
2023-03-23T18:41:38.775Z,13.71
2023-03-23T18:44:06.104Z,13.84
2023-03-23T18:46:32.718Z,13.83
2023-03-23T18:48:59.192Z,13.78
2023-03-23T18:51:26.183Z,13.75
2023-03-23T18:53:52.819Z,13.76
2023-03-23T18:56:19.396Z,13.76
2023-03-23T18:58:46.382Z,13.76
2023-03-23T19:01:16.620Z,13.76
2023-03-23T19:03:44.642Z,13.76
2023-03-23T19:06:23.534Z,13.84
2023-03-23T19:08:52.167Z,13.78
2023-03-23T19:11:19.435Z,13.76
2023-03-23T19:13:58.472Z,13.71
2023-03-23T19:16:29.175Z,13.70
2023-03-23T19:18:55.798Z,13.66
2023-03-23T19:21:25.699Z,13.68
2023-03-23T19:23:54.990Z,13.67
2023-03-23T19:26:29.947Z,13.69
2023-03-23T19:31:26.151Z,13.62
2023-03-23T19:33:53.132Z,13.59
2023-03-23T19:36:21.319Z,13.55
2023-03-23T19:38:49.084Z,13.53
2023-03-23T19:41:18.295Z,13.54
2023-03-23T19:43:45.733Z,13.51
2023-03-23T19:46:12.641Z,13.47
2023-03-23T19:48:39.968Z,13.45
2023-03-23T19:51:07.443Z,13.37
2023-03-23T19:53:34.633Z,13.42
2023-03-23T19:56:03.541Z,13.34
2023-03-23T19:58:31.471Z,13.35
2023-03-23T20:01:00.704Z,13.29
2023-03-23T20:03:27.208Z,13.23
2023-03-23T20:06:01.286Z,13.20
2023-03-23T20:08:28.503Z,13.11
2023-03-23T20:11:05.553Z,13.02
2023-03-23T20:13:32.834Z,13.03
2023-03-23T20:16:00.805Z,13.07
2023-03-23T20:18:29.804Z,13.00
2023-03-23T20:21:11.167Z,13.05
2023-03-23T20:23:38.968Z,12.93
2023-03-23T20:26:11.693Z,12.92
2023-03-23T20:28:39.133Z,12.88
2023-03-23T20:31:18.770Z,12.84
2023-03-23T20:34:00.498Z,12.73
2023-03-23T20:36:40.286Z,12.63
2023-03-23T20:39:10.484Z,12.61
2023-03-23T20:41:38.762Z,12.58
2023-03-23T20:44:06.997Z,12.54
2023-03-23T20:46:34.636Z,12.58
2023-03-23T20:49:01.939Z,12.49
2023-03-23T20:51:28.482Z,12.48
2023-03-23T20:53:55.604Z,12.52
2023-03-23T20:56:22.442Z,12.55
2023-03-23T20:58:49.004Z,12.59
2023-03-23T21:01:15.579Z,12.60
2023-03-23T21:03:43.413Z,12.60
2023-03-23T21:06:10.720Z,12.47
2023-03-23T21:08:39.709Z,12.41
2023-03-23T21:11:09.117Z,12.45
2023-03-23T21:13:36.698Z,12.32
2023-03-23T21:16:04.289Z,12.35
2023-03-23T21:18:31.725Z,12.23
2023-03-23T21:21:00.222Z,12.20
2023-03-23T21:23:29.849Z,12.19
2023-03-23T21:26:05.959Z,12.19
2023-03-23T21:28:32.448Z,12.11
2023-03-23T21:31:04.413Z,12.28
2023-03-23T21:33:31.038Z,12.10
2023-03-23T21:35:58.095Z,11.94
2023-03-23T21:38:27.950Z,11.93
2023-03-23T21:40:56.924Z,11.96
2023-03-23T21:43:27.121Z,11.98
2023-03-23T21:45:57.200Z,12.00
2023-03-23T21:48:25.106Z,11.99
2023-03-23T21:50:52.183Z,11.92
2023-03-23T21:53:19.286Z,12.00
2023-03-23T21:55:51.204Z,12.00
2023-03-23T21:58:23.649Z,11.97
2023-03-23T22:00:54.065Z,11.92
2023-03-23T22:03:25.185Z,11.86
2023-03-23T22:05:54.606Z,11.83
2023-03-23T22:08:22.375Z,11.76
2023-03-23T22:11:01.208Z,11.76
2023-03-23T22:13:30.752Z,11.69
2023-03-23T22:15:59.421Z,11.78
2023-03-23T22:18:26.436Z,11.75
2023-03-23T22:20:53.340Z,11.58
2023-03-23T22:23:20.199Z,11.55
2023-03-23T22:25:47.105Z,11.62
2023-03-23T22:28:13.671Z,11.63
2023-03-23T22:30:40.220Z,11.69
2023-03-23T22:33:07.029Z,11.92
2023-03-23T22:35:33.855Z,11.92
2023-03-23T22:38:03.105Z,11.82
2023-03-23T22:40:31.039Z,11.67
2023-03-23T22:42:58.156Z,11.68
2023-03-23T22:45:26.116Z,11.81
2023-03-23T22:47:52.946Z,11.87
2023-03-23T22:50:21.511Z,11.77
2023-03-23T22:52:48.484Z,11.70
2023-03-23T22:55:15.730Z,11.78
2023-03-23T22:57:42.302Z,11.91
2023-03-23T23:00:14.411Z,11.65
2023-03-23T23:02:42.557Z,11.62
2023-03-23T23:05:10.867Z,11.40
2023-03-23T23:07:38.287Z,11.39
2023-03-23T23:10:05.886Z,11.25
2023-03-23T23:12:35.115Z,11.00
2023-03-23T23:15:05.761Z,10.67
2023-03-23T23:17:34.514Z,10.63
2023-03-23T23:20:01.424Z,10.61
2023-03-23T23:22:28.015Z,10.41
2023-03-23T23:24:54.593Z,10.28
2023-03-23T23:27:21.350Z,10.07
2023-03-23T23:29:47.975Z,10.04
2023-03-23T23:32:14.826Z,10.32
2023-03-23T23:34:41.452Z,10.47
2023-03-23T23:37:09.138Z,10.78
2023-03-23T23:39:38.285Z,11.13
2023-03-23T23:42:05.748Z,11.05
2023-03-23T23:44:32.970Z,11.17
2023-03-23T23:46:59.532Z,11.21
2023-03-23T23:49:28.664Z,11.15
2023-03-23T23:51:56.489Z,11.00
2023-03-23T23:54:29.516Z,10.91
2023-03-23T23:57:01.133Z,10.92
2023-03-23T23:59:28.917Z,11.00
